sensor_id;sensor_type;location;lat;lon;timestamp;P1;durP1;ratioP1;P2;durP2;ratioP2
81382;SDS011;70834;37.534;-122.308;2023-09-19T00:00:57;5.90;;;2.45;;
81382;SDS011;70834;37.534;-122.308;2023-09-19T00:03:40;3.50;;;2.10;;
81382;SDS011;70834;37.534;-122.308;2023-09-19T00:06:40;4.13;;;2.30;;
81382;SDS011;70834;37.534;-122.308;2023-09-19T00:16:20;3.75;;;2.22;;
81382;SDS011;70834;37.534;-122.308;2023-09-19T00:31:34;5.68;;;2.65;;
81382;SDS011;70834;37.534;-122.308;2023-09-19T00:34:18;6.55;;;2.33;;
81382;SDS011;70834;37.534;-122.308;2023-09-19T00:36:51;6.63;;;2.20;;
81382;SDS011;70834;37.534;-122.308;2023-09-19T00:42:17;4.30;;;2.25;;
81382;SDS011;70834;37.534;-122.308;2023-09-19T00:55:01;4.30;;;2.67;;
81382;SDS011;70834;37.534;-122.308;2023-09-19T00:57:42;5.00;;;2.65;;
81382;SDS011;70834;37.534;-122.308;2023-09-19T01:00:45;5.00;;;2.35;;
81382;SDS011;70834;37.534;-122.308;2023-09-19T01:03:28;6.25;;;2.67;;
81382;SDS011;70834;37.534;-122.308;2023-09-19T01:12:22;4.13;;;2.35;;
81382;SDS011;70834;37.534;-122.308;2023-09-19T01:41:13;3.47;;;2.55;;
81382;SDS011;70834;37.534;-122.308;2023-09-19T01:43:43;4.25;;;2.40;;
81382;SDS011;70834;37.534;-122.308;2023-09-19T01:47:01;5.03;;;2.45;;
81382;SDS011;70834;37.534;-122.308;2023-09-19T02:19:59;5.90;;;2.83;;
81382;SDS011;70834;37.534;-122.308;2023-09-19T02:22:46;4.90;;;3.10;;
81382;SDS011;70834;37.534;-122.308;2023-09-19T02:25:22;4.28;;;2.58;;
81382;SDS011;70834;37.534;-122.308;2023-09-19T02:28:06;4.80;;;2.97;;
81382;SDS011;70834;37.534;-122.308;2023-09-19T02:33:54;4.50;;;2.85;;
81382;SDS011;70834;37.534;-122.308;2023-09-19T05:21:12;7.13;;;3.60;;
81382;SDS011;70834;37.534;-122.308;2023-09-19T05:23:51;5.28;;;3.53;;
81382;SDS011;70834;37.534;-122.308;2023-09-19T05:26:47;6.07;;;3.67;;
81382;SDS011;70834;37.534;-122.308;2023-09-19T05:30:13;4.88;;;3.83;;
81382;SDS011;70834;37.534;-122.308;2023-09-19T05:36:11;7.07;;;4.30;;
81382;SDS011;70834;37.534;-122.308;2023-09-19T05:38:50;6.95;;;4.95;;
81382;SDS011;70834;37.534;-122.308;2023-09-19T05:44:54;6.03;;;4.53;;
81382;SDS011;70834;37.534;-122.308;2023-09-19T05:47:35;8.00;;;4.45;;
81382;SDS011;70834;37.534;-122.308;2023-09-19T05:50:26;6.72;;;4.25;;
81382;SDS011;70834;37.534;-122.308;2023-09-19T05:52:55;8.43;;;4.65;;
81382;SDS011;70834;37.534;-122.308;2023-09-19T05:55:31;7.22;;;5.00;;
81382;SDS011;70834;37.534;-122.308;2023-09-19T05:58:41;8.50;;;5.28;;
81382;SDS011;70834;37.534;-122.308;2023-09-19T06:01:05;7.07;;;4.65;;
81382;SDS011;70834;37.534;-122.308;2023-09-19T06:03:32;7.03;;;4.65;;
81382;SDS011;70834;37.534;-122.308;2023-09-19T06:06:09;7.80;;;4.75;;
81382;SDS011;70834;37.534;-122.308;2023-09-19T06:08:37;7.13;;;4.57;;
81382;SDS011;70834;37.534;-122.308;2023-09-19T06:11:01;9.02;;;5.18;;
81382;SDS011;70834;37.534;-122.308;2023-09-19T06:13:46;7.35;;;5.15;;
81382;SDS011;70834;37.534;-122.308;2023-09-19T06:19:56;7.13;;;5.13;;
81382;SDS011;70834;37.534;-122.308;2023-09-19T06:22:38;6.97;;;5.00;;
81382;SDS011;70834;37.534;-122.308;2023-09-19T06:25:22;6.35;;;4.63;;
81382;SDS011;70834;37.534;-122.308;2023-09-19T06:27:58;9.00;;;5.07;;
81382;SDS011;70834;37.534;-122.308;2023-09-19T06:30:28;8.27;;;5.10;;
81382;SDS011;70834;37.534;-122.308;2023-09-19T06:35:38;7.70;;;5.30;;
81382;SDS011;70834;37.534;-122.308;2023-09-19T06:38:07;7.75;;;5.32;;
81382;SDS011;70834;37.534;-122.308;2023-09-19T06:40:39;6.45;;;4.53;;
81382;SDS011;70834;37.534;-122.308;2023-09-19T06:43:16;7.85;;;5.43;;
81382;SDS011;70834;37.534;-122.308;2023-09-19T06:45:37;8.45;;;5.25;;
81382;SDS011;70834;37.534;-122.308;2023-09-19T06:51:19;6.22;;;5.28;;
81382;SDS011;70834;37.534;-122.308;2023-09-19T06:54:10;8.55;;;5.10;;
81382;SDS011;70834;37.534;-122.308;2023-09-19T12:22:00;22.88;;;13.57;;
81382;SDS011;70834;37.534;-122.308;2023-09-19T12:24:34;25.08;;;13.93;;
81382;SDS011;70834;37.534;-122.308;2023-09-19T12:27:03;27.23;;;14.30;;
81382;SDS011;70834;37.534;-122.308;2023-09-19T12:35:07;25.20;;;13.90;;
81382;SDS011;70834;37.534;-122.308;2023-09-19T12:37:34;23.50;;;14.50;;
81382;SDS011;70834;37.534;-122.308;2023-09-19T12:42:59;25.40;;;15.13;;
81382;SDS011;70834;37.534;-122.308;2023-09-19T12:45:43;24.98;;;13.82;;
81382;SDS011;70834;37.534;-122.308;2023-09-19T12:54:52;23.88;;;15.57;;
81382;SDS011;70834;37.534;-122.308;2023-09-19T13:01:15;21.23;;;13.68;;
81382;SDS011;70834;37.534;-122.308;2023-09-19T16:21:44;18.33;;;10.80;;
81382;SDS011;70834;37.534;-122.308;2023-09-19T16:24:26;14.38;;;9.82;;
81382;SDS011;70834;37.534;-122.308;2023-09-19T16:26:47;13.75;;;10.00;;
81382;SDS011;70834;37.534;-122.308;2023-09-19T16:29:09;17.52;;;10.52;;
81382;SDS011;70834;37.534;-122.308;2023-09-19T16:31:37;15.80;;;10.73;;
81382;SDS011;70834;37.534;-122.308;2023-09-19T16:33:58;14.50;;;10.15;;
81382;SDS011;70834;37.534;-122.308;2023-09-19T16:36:20;13.38;;;8.98;;
81382;SDS011;70834;37.534;-122.308;2023-09-19T16:38:48;14.25;;;10.38;;
81382;SDS011;70834;37.534;-122.308;2023-09-19T16:41:10;12.60;;;9.75;;
81382;SDS011;70834;37.534;-122.308;2023-09-19T16:43:36;12.38;;;9.10;;
81382;SDS011;70834;37.534;-122.308;2023-09-19T16:45:58;14.35;;;10.25;;
81382;SDS011;70834;37.534;-122.308;2023-09-19T16:48:24;12.75;;;9.68;;
81382;SDS011;70834;37.534;-122.308;2023-09-19T16:50:46;13.27;;;9.95;;
81382;SDS011;70834;37.534;-122.308;2023-09-19T16:53:09;12.90;;;9.70;;
81382;SDS011;70834;37.534;-122.308;2023-09-19T16:55:33;13.57;;;9.52;;
81382;SDS011;70834;37.534;-122.308;2023-09-19T17:00:58;13.93;;;10.63;;
81382;SDS011;70834;37.534;-122.308;2023-09-19T17:03:44;12.80;;;10.27;;
81382;SDS011;70834;37.534;-122.308;2023-09-19T17:06:09;13.23;;;10.18;;
81382;SDS011;70834;37.534;-122.308;2023-09-19T17:11:50;13.60;;;10.35;;
81382;SDS011;70834;37.534;-122.308;2023-09-19T17:18:29;11.70;;;10.30;;
81382;SDS011;70834;37.534;-122.308;2023-09-19T17:21:06;13.38;;;10.05;;
81382;SDS011;70834;37.534;-122.308;2023-09-19T17:23:35;13.00;;;10.60;;
81382;SDS011;70834;37.534;-122.308;2023-09-19T17:26:10;16.98;;;10.98;;
81382;SDS011;70834;37.534;-122.308;2023-09-19T17:29:00;16.95;;;11.00;;
81382;SDS011;70834;37.534;-122.308;2023-09-19T17:31:52;13.85;;;11.95;;
81382;SDS011;70834;37.534;-122.308;2023-09-19T17:34:22;14.93;;;12.65;;
81382;SDS011;70834;37.534;-122.308;2023-09-19T17:36:58;13.88;;;12.38;;
81382;SDS011;70834;37.534;-122.308;2023-09-19T17:39:28;14.90;;;12.45;;
81382;SDS011;70834;37.534;-122.308;2023-09-19T17:42:09;16.05;;;12.77;;
81382;SDS011;70834;37.534;-122.308;2023-09-19T17:44:38;15.30;;;13.65;;
81382;SDS011;70834;37.534;-122.308;2023-09-19T17:47:01;16.13;;;13.48;;
81382;SDS011;70834;37.534;-122.308;2023-09-19T17:52:58;15.70;;;13.90;;
81382;SDS011;70834;37.534;-122.308;2023-09-19T18:01:35;17.08;;;15.15;;
81382;SDS011;70834;37.534;-122.308;2023-09-19T18:04:12;18.00;;;14.98;;
81382;SDS011;70834;37.534;-122.308;2023-09-19T18:06:37;18.17;;;14.80;;
81382;SDS011;70834;37.534;-122.308;2023-09-19T18:09:09;19.85;;;16.10;;
81382;SDS011;70834;37.534;-122.308;2023-09-19T18:11:47;20.85;;;16.50;;
81382;SDS011;70834;37.534;-122.308;2023-09-19T18:14:12;20.33;;;16.13;;
81382;SDS011;70834;37.534;-122.308;2023-09-19T18:16:38;17.17;;;15.32;;
81382;SDS011;70834;37.534;-122.308;2023-09-19T18:19:20;18.33;;;16.35;;
81382;SDS011;70834;37.534;-122.308;2023-09-19T18:21:42;18.63;;;16.67;;
81382;SDS011;70834;37.534;-122.308;2023-09-19T18:24:07;18.45;;;16.63;;
81382;SDS011;70834;37.534;-122.308;2023-09-19T18:26:30;20.58;;;18.15;;
81382;SDS011;70834;37.534;-122.308;2023-09-19T18:28:53;19.95;;;16.63;;
81382;SDS011;70834;37.534;-122.308;2023-09-19T18:31:15;17.58;;;15.52;;
81382;SDS011;70834;37.534;-122.308;2023-09-19T18:33:40;19.02;;;16.55;;
81382;SDS011;70834;37.534;-122.308;2023-09-19T18:36:19;19.00;;;16.98;;
81382;SDS011;70834;37.534;-122.308;2023-09-19T18:38:43;17.67;;;15.93;;
81382;SDS011;70834;37.534;-122.308;2023-09-19T18:41:23;19.02;;;16.67;;
81382;SDS011;70834;37.534;-122.308;2023-09-19T18:44:00;17.95;;;14.82;;
81382;SDS011;70834;37.534;-122.308;2023-09-19T18:50:10;17.40;;;15.18;;
81382;SDS011;70834;37.534;-122.308;2023-09-19T18:52:31;17.63;;;15.68;;
81382;SDS011;70834;37.534;-122.308;2023-09-19T18:54:53;19.08;;;17.08;;
81382;SDS011;70834;37.534;-122.308;2023-09-19T18:57:34;21.15;;;18.38;;
81382;SDS011;70834;37.534;-122.308;2023-09-19T18:59:59;22.60;;;19.60;;
81382;SDS011;70834;37.534;-122.308;2023-09-19T19:02:21;25.50;;;19.80;;
81382;SDS011;70834;37.534;-122.308;2023-09-19T19:04:43;22.85;;;20.23;;
81382;SDS011;70834;37.534;-122.308;2023-09-19T19:07:06;21.20;;;18.98;;
81382;SDS011;70834;37.534;-122.308;2023-09-19T19:09:28;20.30;;;16.75;;
81382;SDS011;70834;37.534;-122.308;2023-09-19T19:11:49;21.90;;;18.13;;
81382;SDS011;70834;37.534;-122.308;2023-09-19T19:17:13;23.92;;;19.92;;
81382;SDS011;70834;37.534;-122.308;2023-09-19T19:19:56;21.42;;;19.13;;
81382;SDS011;70834;37.534;-122.308;2023-09-19T19:22:36;23.17;;;19.80;;
81382;SDS011;70834;37.534;-122.308;2023-09-19T19:50:04;24.02;;;21.10;;
81382;SDS011;70834;37.534;-122.308;2023-09-19T19:52:29;26.60;;;20.42;;
81382;SDS011;70834;37.534;-122.308;2023-09-19T19:54:53;23.83;;;20.38;;
81382;SDS011;70834;37.534;-122.308;2023-09-19T19:57:26;27.00;;;19.73;;
81382;SDS011;70834;37.534;-122.308;2023-09-19T19:59:54;23.50;;;18.17;;
81382;SDS011;70834;37.534;-122.308;2023-09-19T20:02:17;27.00;;;20.30;;
81382;SDS011;70834;37.534;-122.308;2023-09-19T20:04:47;22.83;;;19.98;;
81382;SDS011;70834;37.534;-122.308;2023-09-19T20:34:48;23.83;;;18.80;;
81382;SDS011;70834;37.534;-122.308;2023-09-19T20:37:20;23.60;;;20.00;;
81382;SDS011;70834;37.534;-122.308;2023-09-19T20:39:50;23.48;;;19.05;;
81382;SDS011;70834;37.534;-122.308;2023-09-19T20:42:16;22.27;;;18.83;;
81382;SDS011;70834;37.534;-122.308;2023-09-19T20:44:47;24.67;;;19.60;;
81382;SDS011;70834;37.534;-122.308;2023-09-19T22:27:50;26.42;;;14.80;;
81382;SDS011;70834;37.534;-122.308;2023-09-19T22:30:31;24.27;;;14.23;;
81382;SDS011;70834;37.534;-122.308;2023-09-19T22:36:12;27.25;;;15.52;;
81382;SDS011;70834;37.534;-122.308;2023-09-19T22:38:34;23.42;;;15.85;;
81382;SDS011;70834;37.534;-122.308;2023-09-19T22:41:05;27.33;;;15.68;;
81382;SDS011;70834;37.534;-122.308;2023-09-19T22:43:31;23.13;;;15.35;;
81382;SDS011;70834;37.534;-122.308;2023-09-19T22:46:05;23.83;;;15.60;;
81382;SDS011;70834;37.534;-122.308;2023-09-19T22:48:35;24.70;;;15.70;;
81382;SDS011;70834;37.534;-122.308;2023-09-19T22:51:05;25.17;;;16.15;;
81382;SDS011;70834;37.534;-122.308;2023-09-19T22:53:33;24.88;;;15.80;;
81382;SDS011;70834;37.534;-122.308;2023-09-19T22:56:05;26.15;;;17.27;;
81382;SDS011;70834;37.534;-122.308;2023-09-19T22:58:40;26.98;;;17.42;;
81382;SDS011;70834;37.534;-122.308;2023-09-19T23:01:12;24.27;;;16.50;;
81382;SDS011;70834;37.534;-122.308;2023-09-19T23:03:39;25.58;;;17.65;;
81382;SDS011;70834;37.534;-122.308;2023-09-19T23:06:09;29.25;;;18.45;;
81382;SDS011;70834;37.534;-122.308;2023-09-19T23:08:52;28.77;;;18.38;;
81382;SDS011;70834;37.534;-122.308;2023-09-19T23:11:14;31.85;;;20.48;;
81382;SDS011;70834;37.534;-122.308;2023-09-19T23:13:42;34.72;;;20.45;;
81382;SDS011;70834;37.534;-122.308;2023-09-19T23:16:34;32.80;;;21.33;;
81382;SDS011;70834;37.534;-122.308;2023-09-19T23:19:05;33.92;;;22.45;;
81382;SDS011;70834;37.534;-122.308;2023-09-19T23:21:56;33.92;;;20.75;;
81382;SDS011;70834;37.534;-122.308;2023-09-19T23:24:54;33.45;;;22.17;;
81382;SDS011;70834;37.534;-122.308;2023-09-19T23:27:36;34.63;;;22.77;;
81382;SDS011;70834;37.534;-122.308;2023-09-19T23:30:11;35.75;;;23.60;;
81382;SDS011;70834;37.534;-122.308;2023-09-19T23:32:43;35.25;;;23.52;;
81382;SDS011;70834;37.534;-122.308;2023-09-19T23:35:04;31.00;;;24.02;;
